Stolt Ami — 3EAZ5 — position and weather

sailwx.info

Track history (hours):
 
Tides and Currents Weather Stations Pressure Air Temp Water Temp Dewpoint Dewpoint Depression Visibility Wind Speed Wind Dir Waves Ship Positions

Stolt Ami

Last reported at 2014-Sep-06 18:26 UTC. Time now 2014-Sep-23 08:22 UTC.
Position S 28°40' E 033°23'.
Warning: this ship's position is 16 days out of date.

Length 143 m; draft 9.3 m.

Type: Tanker. MMSI: 371433000.

Date/timePositionNaut miles runAvg speedWind from/ knotsBaromVisibWave heightAir tempDewpointWater temp
2014-Sep-06 18:26S 28°40' E 033°23'5110.3
2014-Sep-06 13:32S 28°49' E 032°26'9 8.9
2014-Sep-06 12:33S 28°50' E 032°16'10 9.7
2014-Sep-06 11:33S 28°49' E 032°06'2 0.1
2014-Sep-05 09:10S 28°50' E 032°07'2 1.3
2014-Sep-05 07:24S 28°51' E 032°09'0 0.4
2014-Sep-05 06:29S 28°51' E 032°09'  
2014-Aug-31 09:17S 29°28' E 031°38'1013.8
2014-Aug-31 08:31S 29°35' E 031°29'1414.0
2014-Aug-31 07:33S 29°43' E 031°16'1312.5
2014-Aug-31 06:33S 29°50' E 031°05'3 3.2
2014-Aug-31 05:27S 29°53' E 031°02'0 0.0
2014-Aug-31 04:28S 29°53' E 031°02'0 0.0
2014-Aug-31 03:34S 29°53' E 031°02'0 0.0
2014-Aug-31 02:32S 29°53' E 031°02'0 0.0
2014-Aug-31 01:33S 29°53' E 031°02'0 0.0
2014-Aug-31 00:33S 29°53' E 031°02'0 0.0
2014-Aug-30 23:33S 29°53' E 031°02'0 0.0
2014-Aug-30 22:33S 29°53' E 031°02'0 0.0
2014-Aug-30 21:33S 29°53' E 031°02'0 0.0
2014-Aug-30 20:33S 29°53' E 031°02'0 0.0
2014-Aug-30 19:33S 29°53' E 031°02'0 0.0
2014-Aug-30 18:32S 29°53' E 031°02'0 0.0
2014-Aug-30 17:33S 29°53' E 031°02'0 0.0
2014-Aug-30 16:33S 29°53' E 031°02'0 0.0
2014-Aug-30 15:33S 29°53' E 031°02'0 0.0
2014-Aug-30 14:33S 29°53' E 031°02'0 0.0
2014-Aug-30 13:33S 29°53' E 031°02'0 0.0
2014-Aug-30 12:33S 29°53' E 031°02'0 0.0
2014-Aug-30 11:33S 29°53' E 031°02'0 0.0
2014-Aug-30 10:33S 29°53' E 031°02'0 0.0
2014-Aug-30 09:33S 29°53' E 031°02'0 0.0
2014-Aug-30 08:33S 29°53' E 031°02'0 0.0
2014-Aug-30 07:33S 29°53' E 031°02'0 0.0
2014-Aug-30 06:33S 29°53' E 031°02'0 0.0
2014-Aug-30 05:33S 29°53' E 031°02'0 0.0
2014-Aug-30 04:33S 29°53' E 031°02'0 0.0
2014-Aug-30 03:33S 29°53' E 031°02'0 0.0
2014-Aug-30 02:33S 29°53' E 031°02'0 0.0
2014-Aug-30 01:33S 29°53' E 031°02'0 0.0
2014-Aug-30 00:33S 29°53' E 031°02'0 0.0
2014-Aug-29 23:33S 29°53' E 031°02'0 0.0
2014-Aug-29 22:33S 29°53' E 031°02'0 0.0
2014-Aug-29 21:33S 29°53' E 031°02'0 0.0
2014-Aug-29 20:33S 29°53' E 031°02'0 0.0
2014-Aug-29 19:33S 29°53' E 031°02'0 0.0
2014-Aug-29 18:33S 29°53' E 031°02'0 0.0
2014-Aug-29 17:33S 29°53' E 031°02'0 0.0
2014-Aug-29 16:33S 29°53' E 031°02'0 0.0
2014-Aug-29 15:33S 29°53' E 031°02'0 0.0
2014-Aug-29 14:33S 29°53' E 031°02'0 0.0
2014-Aug-29 13:33S 29°53' E 031°02'0 0.0
2014-Aug-29 12:33S 29°53' E 031°02'0 0.0
2014-Aug-29 11:33S 29°53' E 031°02'5 4.6
2014-Aug-29 10:33S 29°50' E 031°06'2 1.8
2014-Aug-29 09:33S 29°48' E 031°06'1 1.3
2014-Aug-29 08:33S 29°47' E 031°07'3 3.0
2014-Aug-29 07:33S 29°45' E 031°10'0 0.1
2014-Aug-29 06:29S 29°44' E 031°10'0 0.0
2014-Aug-29 04:29S 29°44' E 031°10'0 0.0
2014-Aug-29 03:29S 29°44' E 031°10'0 0.1
2014-Aug-29 02:29S 29°45' E 031°10'0 0.0
2014-Aug-29 01:23S 29°45' E 031°10'0 0.1
2014-Aug-29 00:17S 29°45' E 031°10'0 0.1
2014-Aug-28 23:17S 29°45' E 031°10'0 0.0
2014-Aug-28 22:29S 29°45' E 031°10'0 0.2
2014-Aug-28 21:23S 29°45' E 031°10'0 0.0
2014-Aug-28 20:17S 29°45' E 031°10'0 0.0
2014-Aug-28 19:29S 29°45' E 031°10'0 0.0
2014-Aug-28 18:23S 29°45' E 031°10'0 0.0
2014-Aug-28 17:29S 29°45' E 031°10'0 0.0
2014-Aug-28 16:23S 29°45' E 031°10'0 0.0
2014-Aug-28 15:23S 29°45' E 031°10'0 0.0
2014-Aug-28 14:23S 29°45' E 031°10'0 0.0
2014-Aug-28 13:29S 29°45' E 031°09'0 0.0
2014-Aug-28 12:17S 29°45' E 031°09'0 0.0
2014-Aug-28 11:29S 29°45' E 031°09'0 0.0
2014-Aug-28 10:23S 29°45' E 031°09'0 0.0
2014-Aug-28 09:17S 29°45' E 031°09'0 0.0
2014-Aug-28 08:29S 29°45' E 031°09'0 0.0
2014-Aug-28 07:29S 29°45' E 031°09'0 0.0
2014-Aug-28 06:29S 29°45' E 031°09'0 0.1
2014-Aug-28 05:23S 29°45' E 031°09'0 0.1
2014-Aug-28 04:23S 29°45' E 031°10'0 0.0
2014-Aug-28 03:29S 29°45' E 031°10'0 0.0
2014-Aug-28 02:29S 29°45' E 031°10'0 0.0
2014-Aug-28 01:29S 29°45' E 031°10'0 0.0
2014-Aug-28 00:29S 29°45' E 031°10'0 0.0
2014-Aug-27 23:23S 29°45' E 031°10'0 0.0
2014-Aug-27 22:29S 29°45' E 031°10'0 0.0
2014-Aug-27 21:29S 29°45' E 031°10'0 0.3
2014-Aug-27 20:29S 29°45' E 031°09'0 0.1
2014-Aug-27 19:29S 29°45' E 031°09'0 0.0
2014-Aug-27 18:29S 29°45' E 031°09'  
Track history (hours):
 
Tides and Currents Weather Stations Pressure Air Temp Water Temp Dewpoint Dewpoint Depression Visibility Wind Speed Wind Dir Waves Ship Positions

Stolt Ami

Last reported at 2014-Sep-06 18:26 UTC. Time now 2014-Sep-23 08:22 UTC.
Position S 28°40' E 033°23'.
Warning: this ship's position is 16 days out of date.

Length 143 m; draft 9.3 m.

Type: Tanker. MMSI: 371433000.

Date/timePositionNaut miles runAvg speedWind from/ knotsBaromVisibWave heightAir tempDewpointWater temp
2014-Sep-06 18:26S 28°40' E 033°23'5110.3
2014-Sep-06 13:32S 28°49' E 032°26'9 8.9
2014-Sep-06 12:33S 28°50' E 032°16'10 9.7
2014-Sep-06 11:33S 28°49' E 032°06'2 0.1
2014-Sep-05 09:10S 28°50' E 032°07'2 1.3
2014-Sep-05 07:24S 28°51' E 032°09'0 0.4
2014-Sep-05 06:29S 28°51' E 032°09'  
2014-Aug-31 09:17S 29°28' E 031°38'1013.8
2014-Aug-31 08:31S 29°35' E 031°29'1414.0
2014-Aug-31 07:33S 29°43' E 031°16'1312.5
2014-Aug-31 06:33S 29°50' E 031°05'3 3.2
2014-Aug-31 05:27S 29°53' E 031°02'0 0.0
2014-Aug-31 04:28S 29°53' E 031°02'0 0.0
2014-Aug-31 03:34S 29°53' E 031°02'0 0.0
2014-Aug-31 02:32S 29°53' E 031°02'0 0.0
2014-Aug-31 01:33S 29°53' E 031°02'0 0.0
2014-Aug-31 00:33S 29°53' E 031°02'0 0.0
2014-Aug-30 23:33S 29°53' E 031°02'0 0.0
2014-Aug-30 22:33S 29°53' E 031°02'0 0.0
2014-Aug-30 21:33S 29°53' E 031°02'0 0.0
2014-Aug-30 20:33S 29°53' E 031°02'0 0.0
2014-Aug-30 19:33S 29°53' E 031°02'0 0.0
2014-Aug-30 18:32S 29°53' E 031°02'0 0.0
2014-Aug-30 17:33S 29°53' E 031°02'0 0.0
2014-Aug-30 16:33S 29°53' E 031°02'0 0.0
2014-Aug-30 15:33S 29°53' E 031°02'0 0.0
2014-Aug-30 14:33S 29°53' E 031°02'0 0.0
2014-Aug-30 13:33S 29°53' E 031°02'0 0.0
2014-Aug-30 12:33S 29°53' E 031°02'0 0.0
2014-Aug-30 11:33S 29°53' E 031°02'0 0.0
2014-Aug-30 10:33S 29°53' E 031°02'0 0.0
2014-Aug-30 09:33S 29°53' E 031°02'0 0.0
2014-Aug-30 08:33S 29°53' E 031°02'0 0.0
2014-Aug-30 07:33S 29°53' E 031°02'0 0.0
2014-Aug-30 06:33S 29°53' E 031°02'0 0.0
2014-Aug-30 05:33S 29°53' E 031°02'0 0.0
2014-Aug-30 04:33S 29°53' E 031°02'0 0.0
2014-Aug-30 03:33S 29°53' E 031°02'0 0.0
2014-Aug-30 02:33S 29°53' E 031°02'0 0.0
2014-Aug-30 01:33S 29°53' E 031°02'0 0.0
2014-Aug-30 00:33S 29°53' E 031°02'0 0.0
2014-Aug-29 23:33S 29°53' E 031°02'0 0.0
2014-Aug-29 22:33S 29°53' E 031°02'0 0.0
2014-Aug-29 21:33S 29°53' E 031°02'0 0.0
2014-Aug-29 20:33S 29°53' E 031°02'0 0.0
2014-Aug-29 19:33S 29°53' E 031°02'0 0.0
2014-Aug-29 18:33S 29°53' E 031°02'0 0.0
2014-Aug-29 17:33S 29°53' E 031°02'0 0.0
2014-Aug-29 16:33S 29°53' E 031°02'0 0.0
2014-Aug-29 15:33S 29°53' E 031°02'0 0.0
2014-Aug-29 14:33S 29°53' E 031°02'0 0.0
2014-Aug-29 13:33S 29°53' E 031°02'0 0.0
2014-Aug-29 12:33S 29°53' E 031°02'0 0.0
2014-Aug-29 11:33S 29°53' E 031°02'5 4.6
2014-Aug-29 10:33S 29°50' E 031°06'2 1.8
2014-Aug-29 09:33S 29°48' E 031°06'1 1.3
2014-Aug-29 08:33S 29°47' E 031°07'3 3.0
2014-Aug-29 07:33S 29°45' E 031°10'0 0.1
2014-Aug-29 06:29S 29°44' E 031°10'0 0.0
2014-Aug-29 04:29S 29°44' E 031°10'0 0.0
2014-Aug-29 03:29S 29°44' E 031°10'0 0.1
2014-Aug-29 02:29S 29°45' E 031°10'0 0.0
2014-Aug-29 01:23S 29°45' E 031°10'0 0.1
2014-Aug-29 00:17S 29°45' E 031°10'0 0.1
2014-Aug-28 23:17S 29°45' E 031°10'0 0.0
2014-Aug-28 22:29S 29°45' E 031°10'0 0.2
2014-Aug-28 21:23S 29°45' E 031°10'0 0.0
2014-Aug-28 20:17S 29°45' E 031°10'0 0.0
2014-Aug-28 19:29S 29°45' E 031°10'0 0.0
2014-Aug-28 18:23S 29°45' E 031°10'0 0.0
2014-Aug-28 17:29S 29°45' E 031°10'0 0.0
2014-Aug-28 16:23S 29°45' E 031°10'0 0.0
2014-Aug-28 15:23S 29°45' E 031°10'0 0.0
2014-Aug-28 14:23S 29°45' E 031°10'0 0.0
2014-Aug-28 13:29S 29°45' E 031°09'0 0.0
2014-Aug-28 12:17S 29°45' E 031°09'0 0.0
2014-Aug-28 11:29S 29°45' E 031°09'0 0.0
2014-Aug-28 10:23S 29°45' E 031°09'0 0.0
2014-Aug-28 09:17S 29°45' E 031°09'0 0.0
2014-Aug-28 08:29S 29°45' E 031°09'0 0.0
2014-Aug-28 07:29S 29°45' E 031°09'0 0.0
2014-Aug-28 06:29S 29°45' E 031°09'0 0.1
2014-Aug-28 05:23S 29°45' E 031°09'0 0.1
2014-Aug-28 04:23S 29°45' E 031°10'0 0.0
2014-Aug-28 03:29S 29°45' E 031°10'0 0.0
2014-Aug-28 02:29S 29°45' E 031°10'0 0.0
2014-Aug-28 01:29S 29°45' E 031°10'0 0.0
2014-Aug-28 00:29S 29°45' E 031°10'0 0.0
2014-Aug-27 23:23S 29°45' E 031°10'0 0.0
2014-Aug-27 22:29S 29°45' E 031°10'0 0.0
2014-Aug-27 21:29S 29°45' E 031°10'0 0.3
2014-Aug-27 20:29S 29°45' E 031°09'0 0.1
2014-Aug-27 19:29S 29°45' E 031°09'0 0.0
2014-Aug-27 18:29S 29°45' E 031°09'  

Dump ship's entire track history